createdAt,value
2018-05-29T00:00:08.070Z,93.96
2018-05-29T00:01:07.985Z,94.54
2018-05-29T00:02:07.906Z,94.45
2018-05-29T00:03:07.810Z,94.45
2018-05-29T00:04:07.755Z,94.45
2018-05-29T00:05:07.631Z,94.45
2018-05-29T00:06:07.551Z,94.35
2018-05-29T00:07:07.459Z,93.58
2018-05-29T00:08:07.371Z,93.68
2018-05-29T00:09:07.326Z,92.52
2018-05-29T00:10:07.198Z,93.01
2018-05-29T00:11:07.217Z,92.47
2018-05-29T00:12:07.019Z,92.29
2018-05-29T00:13:06.933Z,91.52
2018-05-29T00:14:06.854Z,91.03
2018-05-29T00:15:06.789Z,91.03
2018-05-29T00:16:06.669Z,90.94
2018-05-29T00:17:06.580Z,90.41
2018-05-29T00:18:06.589Z,90.02
2018-05-29T00:19:06.406Z,89.73
2018-05-29T00:20:06.352Z,89.54
2018-05-29T00:21:06.228Z,89.64
2018-05-29T00:22:06.144Z,89.25
2018-05-29T00:23:06.057Z,89.73
2018-05-29T00:24:05.969Z,89.35
2018-05-29T00:25:06.016Z,89.01
2018-05-29T00:26:05.793Z,89.25
2018-05-29T00:27:05.708Z,89.10
2018-05-29T00:28:05.619Z,88.81
2018-05-29T00:29:05.532Z,89.15
2018-05-29T00:30:05.445Z,89.83
2018-05-29T00:31:05.386Z,90.02
2018-05-29T00:32:05.360Z,90.21
2018-05-29T00:33:05.180Z,90.59
2018-05-29T00:34:05.092Z,90.69
2018-05-29T00:35:05.011Z,91.27
2018-05-29T00:36:04.948Z,91.17
2018-05-29T00:37:04.829Z,90.50
2018-05-29T00:38:04.741Z,90.79
2018-05-29T00:39:04.748Z,90.41
2018-05-29T00:40:04.569Z,90.69
2018-05-29T00:41:04.511Z,90.98
2018-05-29T00:42:04.393Z,90.89
2018-05-29T00:43:04.305Z,90.98
2018-05-29T00:44:04.228Z,90.41
2018-05-29T00:45:04.127Z,90.79
2018-05-29T00:46:04.170Z,90.98
2018-05-29T00:47:03.956Z,90.41
2018-05-29T00:48:03.864Z,89.54
2018-05-29T00:49:03.779Z,90.50
2018-05-29T00:50:03.689Z,89.54
2018-05-29T00:51:03.606Z,89.64
2018-05-29T00:52:03.544Z,90.41
2018-05-29T00:53:03.520Z,90.31
2018-05-29T00:54:03.341Z,90.41
2018-05-29T00:55:03.256Z,90.12
2018-05-29T00:56:03.169Z,90.41
2018-05-29T00:57:03.111Z,90.59
2018-05-29T00:58:02.988Z,90.50
2018-05-29T00:59:02.902Z,90.31
2018-05-29T01:00:02.910Z,90.79
2018-05-29T01:01:02.726Z,90.59
2018-05-29T01:02:02.670Z,90.98
2018-05-29T01:03:02.552Z,90.98
2018-05-29T01:04:02.469Z,90.89
2018-05-29T01:05:02.394Z,91.17
2018-05-29T01:06:02.287Z,91.27
2018-05-29T01:07:02.336Z,91.27
2018-05-29T01:08:02.116Z,91.08
2018-05-29T01:09:02.027Z,91.66
2018-05-29T01:10:01.942Z,91.66
2018-05-29T01:11:01.852Z,91.27
2018-05-29T01:12:01.765Z,91.66
2018-05-29T01:13:01.709Z,91.17
2018-05-29T01:14:01.685Z,91.27
2018-05-29T01:15:01.501Z,91.99
2018-05-29T01:16:01.413Z,92.38
2018-05-29T01:17:01.326Z,92.52
2018-05-29T01:18:01.271Z,92.13
2018-05-29T01:19:01.152Z,92.29
2018-05-29T01:20:01.061Z,92.04
2018-05-29T01:21:01.067Z,92.19
2018-05-29T01:22:00.889Z,91.90
2018-05-29T01:23:00.804Z,92.19
2018-05-29T01:24:00.748Z,92.29
2018-05-29T01:25:00.626Z,92.57
2018-05-29T01:26:00.538Z,92.38
2018-05-29T01:27:00.452Z,92.29
2018-05-29T01:28:00.365Z,92.19
2018-05-29T01:29:00.304Z,92.33
2018-05-29T01:30:00.189Z,91.90
2018-05-29T01:31:00.099Z,92.47
2018-05-29T01:32:00.016Z,92.29
2018-05-29T01:32:59.922Z,92.19
2018-05-29T01:33:59.865Z,91.85
2018-05-29T01:34:59.746Z,92.19
2018-05-29T01:35:59.661Z,92.67
2018-05-29T01:36:59.573Z,92.47
2018-05-29T01:37:59.483Z,92.57
2018-05-29T01:38:59.427Z,92.19
2018-05-29T01:39:59.311Z,91.90
2018-05-29T01:40:59.223Z,93.15
2018-05-29T01:41:59.137Z,92.09
2018-05-29T01:42:59.046Z,92.96
2018-05-29T01:43:59.005Z,92.86
2018-05-29T01:44:58.870Z,92.67
2018-05-29T01:45:58.783Z,92.67
2018-05-29T01:46:58.697Z,93.15
2018-05-29T01:47:58.608Z,92.86
2018-05-29T01:48:58.522Z,92.86
2018-05-29T01:49:58.492Z,92.67
2018-05-29T01:50:58.346Z,92.76
2018-05-29T01:51:58.255Z,93.15
2018-05-29T01:52:58.170Z,92.86
2018-05-29T01:53:58.081Z,92.19
2018-05-29T01:54:58.023Z,92.61
2018-05-29T01:55:57.906Z,92.86
2018-05-29T01:56:57.818Z,93.15
2018-05-29T01:57:57.728Z,92.86
2018-05-29T01:58:57.641Z,93.05
2018-05-29T01:59:57.587Z,93.15
2018-05-29T02:00:57.465Z,93.15
2018-05-29T02:01:57.378Z,93.24
2018-05-29T02:02:57.291Z,93.05
2018-05-29T02:03:57.203Z,92.96
2018-05-29T02:04:57.118Z,93.05
2018-05-29T02:05:57.057Z,92.76
2018-05-29T02:06:56.938Z,92.96
2018-05-29T02:07:56.855Z,92.76
2018-05-29T02:08:56.768Z,92.96
2018-05-29T02:09:56.678Z,93.15
2018-05-29T02:10:56.617Z,92.47
2018-05-29T02:11:56.499Z,92.96
2018-05-29T02:12:56.411Z,93.05
2018-05-29T02:13:56.321Z,92.96
2018-05-29T02:14:56.236Z,92.76
2018-05-29T02:15:56.178Z,93.05
2018-05-29T02:16:56.061Z,92.96
2018-05-29T02:17:55.973Z,93.34
2018-05-29T02:18:55.885Z,93.05
2018-05-29T02:19:55.797Z,92.76
2018-05-29T02:20:55.737Z,92.76
2018-05-29T02:21:55.630Z,92.86
2018-05-29T02:22:55.531Z,93.05
2018-05-29T02:23:55.442Z,93.15
2018-05-29T02:24:55.355Z,93.24
2018-05-29T02:25:55.298Z,93.15
2018-05-29T02:26:55.180Z,93.15
2018-05-29T02:27:55.092Z,92.86
2018-05-29T02:28:55.006Z,93.63
2018-05-29T02:29:55.012Z,93.53
2018-05-29T02:30:54.868Z,94.01
2018-05-29T02:31:54.743Z,94.30
2018-05-29T02:32:54.651Z,94.11
2018-05-29T02:33:54.565Z,94.68
2018-05-29T02:34:54.478Z,94.30
2018-05-29T02:35:54.392Z,93.73
2018-05-29T02:36:54.335Z,93.73
2018-05-29T02:37:54.213Z,93.15
2018-05-29T02:38:54.129Z,93.34
2018-05-29T02:39:54.039Z,93.44
2018-05-29T02:40:53.953Z,93.73
2018-05-29T02:41:53.897Z,93.63
2018-05-29T02:42:53.783Z,94.49
2018-05-29T02:43:53.688Z,94.59
2018-05-29T02:44:53.596Z,94.73
2018-05-29T02:45:53.509Z,94.73
2018-05-29T02:46:53.453Z,94.88
2018-05-29T02:47:53.342Z,94.45
2018-05-29T02:48:53.246Z,95.12
2018-05-29T02:49:53.163Z,95.21
2018-05-29T02:50:53.071Z,94.26
2018-05-29T02:51:52.987Z,94.45
2018-05-29T02:52:52.925Z,94.88
2018-05-29T02:53:52.825Z,94.16
2018-05-29T02:54:52.718Z,94.45
2018-05-29T02:55:52.629Z,94.59
2018-05-29T02:56:52.542Z,94.59
2018-05-29T02:57:52.490Z,94.45
2018-05-29T02:58:52.370Z,94.45
2018-05-29T02:59:52.275Z,94.49
2018-05-29T03:00:52.189Z,94.78
2018-05-29T03:01:52.103Z,94.78
2018-05-29T03:02:52.047Z,94.45
2018-05-29T03:03:51.928Z,95.12
2018-05-29T03:04:51.841Z,94.49
2018-05-29T03:05:51.752Z,94.64
2018-05-29T03:06:51.710Z,94.45
2018-05-29T03:07:51.610Z,94.16
2018-05-29T03:08:51.484Z,94.49
2018-05-29T03:09:51.397Z,95.31
2018-05-29T03:10:51.310Z,95.31
2018-05-29T03:11:51.222Z,95.12
2018-05-29T03:12:51.134Z,95.50
2018-05-29T03:13:51.077Z,95.50
2018-05-29T03:14:50.958Z,95.70
2018-05-29T03:15:50.870Z,95.79
2018-05-29T03:16:50.778Z,95.89
2018-05-29T03:17:50.693Z,95.89
2018-05-29T03:18:50.634Z,96.56
2018-05-29T03:19:50.516Z,95.98
2018-05-29T03:20:50.458Z,96.27
2018-05-29T03:21:50.343Z,95.79
2018-05-29T03:22:50.252Z,95.89
2018-05-29T03:23:50.209Z,95.79
2018-05-29T03:24:50.074Z,95.70
2018-05-29T03:25:50.000Z,95.98
2018-05-29T03:26:49.912Z,96.17
2018-05-29T03:27:50.114Z,95.98
2018-05-29T03:28:49.724Z,95.98
2018-05-29T03:29:49.667Z,95.89
2018-05-29T03:30:49.547Z,96.56
2018-05-29T03:31:49.458Z,95.89
2018-05-29T03:32:49.368Z,95.89
2018-05-29T03:33:49.374Z,95.98
2018-05-29T03:34:49.226Z,96.47
2018-05-29T03:35:49.107Z,95.70
2018-05-29T03:36:49.016Z,95.79
2018-05-29T03:37:48.929Z,95.79
2018-05-29T03:38:48.846Z,96.56
2018-05-29T03:39:48.784Z,95.98
2018-05-29T03:40:48.757Z,95.60
2018-05-29T03:41:48.576Z,95.89
2018-05-29T03:42:48.489Z,95.89
2018-05-29T03:43:48.401Z,95.98
2018-05-29T03:44:48.354Z,96.08
2018-05-29T03:45:48.224Z,95.89
2018-05-29T03:46:48.136Z,95.79
2018-05-29T03:47:48.162Z,95.70
2018-05-29T03:48:47.958Z,96.47
2018-05-29T03:49:47.872Z,95.60
2018-05-29T03:50:47.811Z,96.17
2018-05-29T03:51:47.695Z,95.89
2018-05-29T03:52:47.607Z,96.08
2018-05-29T03:53:47.522Z,95.89
2018-05-29T03:54:47.523Z,96.08
2018-05-29T03:55:47.373Z,95.98
2018-05-29T03:56:47.253Z,95.79
2018-05-29T03:57:47.168Z,96.27
2018-05-29T03:58:47.077Z,96.17
2018-05-29T03:59:46.990Z,96.08
2018-05-29T04:00:46.932Z,96.37
2018-05-29T04:01:46.909Z,96.27
2018-05-29T04:02:46.727Z,95.89
2018-05-29T04:03:46.638Z,95.60
2018-05-29T04:04:46.550Z,96.17
2018-05-29T04:05:46.462Z,95.79
2018-05-29T04:06:46.408Z,95.50
2018-05-29T04:07:46.406Z,95.79
2018-05-29T04:08:46.197Z,95.79
2018-05-29T04:09:46.111Z,95.60
2018-05-29T04:10:46.024Z,95.89
2018-05-29T04:11:45.962Z,95.60
2018-05-29T04:12:45.842Z,95.70
2018-05-29T04:13:45.757Z,96.17
2018-05-29T04:14:45.670Z,95.60
2018-05-29T04:15:45.690Z,95.60
2018-05-29T04:16:45.525Z,95.60
2018-05-29T04:17:45.408Z,95.60
2018-05-29T04:18:45.315Z,95.12
2018-05-29T04:19:45.245Z,95.60
2018-05-29T04:20:45.140Z,94.73
2018-05-29T04:21:45.100Z,95.21
2018-05-29T04:22:44.968Z,95.40
2018-05-29T04:23:44.877Z,95.40
2018-05-29T04:24:44.788Z,94.93
2018-05-29T04:25:44.698Z,95.21
2018-05-29T04:26:44.612Z,94.73
2018-05-29T04:27:44.556Z,94.54
2018-05-29T04:28:44.437Z,94.45
2018-05-29T04:29:44.348Z,94.64
2018-05-29T04:30:44.261Z,94.93
2018-05-29T04:31:44.175Z,94.73
2018-05-29T04:32:44.117Z,95.40
2018-05-29T04:33:43.998Z,95.12
2018-05-29T04:34:43.909Z,95.12
2018-05-29T04:35:43.821Z,94.73
2018-05-29T04:36:43.731Z,94.78
2018-05-29T04:37:43.674Z,94.49
2018-05-29T04:38:43.555Z,93.91
2018-05-29T04:39:43.472Z,93.87
2018-05-29T04:40:43.382Z,93.53
2018-05-29T04:41:43.294Z,93.73
2018-05-29T04:42:43.237Z,93.82
2018-05-29T04:43:43.123Z,93.53
2018-05-29T04:44:43.033Z,93.82
2018-05-29T04:45:42.944Z,93.63
2018-05-29T04:46:42.854Z,93.63
2018-05-29T04:47:42.768Z,92.86
2018-05-29T04:48:42.707Z,92.86
2018-05-29T04:49:42.641Z,92.47
2018-05-29T04:50:42.504Z,92.61
2018-05-29T04:51:42.413Z,92.29
2018-05-29T04:52:42.329Z,91.66
2018-05-29T04:53:42.271Z,92.43
2018-05-29T04:54:42.151Z,91.46
2018-05-29T04:55:42.065Z,91.36
2018-05-29T04:56:41.976Z,91.46
2018-05-29T04:57:41.889Z,90.89
2018-05-29T04:58:41.836Z,91.27
2018-05-29T04:59:41.720Z,91.36
2018-05-29T05:00:41.627Z,91.85
2018-05-29T05:01:41.540Z,92.43
2018-05-29T05:02:41.463Z,91.85
2018-05-29T05:03:41.395Z,92.33
2018-05-29T05:04:41.276Z,92.33
2018-05-29T05:05:41.193Z,92.04
2018-05-29T05:06:41.103Z,91.75
2018-05-29T05:07:41.016Z,91.85
2018-05-29T05:08:40.960Z,91.46
2018-05-29T05:09:40.841Z,91.27
2018-05-29T05:10:40.755Z,91.46
2018-05-29T05:11:40.672Z,91.17
2018-05-29T05:12:40.581Z,91.66
2018-05-29T05:13:40.492Z,91.17
2018-05-29T05:14:40.438Z,91.75
2018-05-29T05:15:40.317Z,91.08
2018-05-29T05:16:40.232Z,91.56
2018-05-29T05:17:40.149Z,91.17
2018-05-29T05:18:40.056Z,91.46
2018-05-29T05:19:40.006Z,91.08
2018-05-29T05:20:39.882Z,91.27
2018-05-29T05:21:39.796Z,91.31
2018-05-29T05:22:39.709Z,90.55
2018-05-29T05:23:39.659Z,90.73
2018-05-29T05:24:39.568Z,90.73
2018-05-29T05:25:39.448Z,90.26
2018-05-29T05:26:39.360Z,92.38
2018-05-29T05:27:39.276Z,90.64
2018-05-29T05:28:39.185Z,90.98
2018-05-29T05:29:39.131Z,90.55
2018-05-29T05:30:39.017Z,90.55
2018-05-29T05:31:38.930Z,92.08
2018-05-29T05:32:38.839Z,90.45
2018-05-29T05:33:38.755Z,89.87
2018-05-29T05:34:38.702Z,89.78
2018-05-29T05:35:38.577Z,90.26
2018-05-29T05:36:38.489Z,89.58
2018-05-29T05:37:38.405Z,90.45
2018-05-29T05:38:38.410Z,89.87
2018-05-29T05:39:38.265Z,89.87
2018-05-29T05:40:38.144Z,89.87
2018-05-29T05:41:38.057Z,90.26
2018-05-29T05:42:37.969Z,89.24
2018-05-29T05:43:37.889Z,89.34
2018-05-29T05:44:37.826Z,89.15
2018-05-29T05:45:37.804Z,89.24
2018-05-29T05:46:37.622Z,89.15
2018-05-29T05:47:37.537Z,89.43
2018-05-29T05:48:37.452Z,89.34
2018-05-29T05:49:37.364Z,88.38
2018-05-29T05:50:37.308Z,88.95
2018-05-29T05:51:37.188Z,87.70
2018-05-29T05:52:37.240Z,88.18
2018-05-29T05:53:37.016Z,88.38
2018-05-29T05:54:36.934Z,89.24
2018-05-29T05:55:36.873Z,88.57
2018-05-29T05:56:36.755Z,88.38
2018-05-29T05:57:36.667Z,87.51
2018-05-29T05:58:36.584Z,87.60
2018-05-29T05:59:36.588Z,88.09
2018-05-29T06:00:36.445Z,89.34
2018-05-29T06:01:36.323Z,87.80
2018-05-29T06:02:36.236Z,87.55
2018-05-29T06:03:36.151Z,87.46
2018-05-29T06:04:36.066Z,86.59
2018-05-29T06:05:36.011Z,86.98
2018-05-29T06:06:35.982Z,86.88
2018-05-29T06:07:35.808Z,87.07
2018-05-29T06:08:35.716Z,86.21
2018-05-29T06:09:35.633Z,87.65
2018-05-29T06:10:35.578Z,86.21
2018-05-29T06:11:35.460Z,87.21
2018-05-29T06:12:35.372Z,86.21
2018-05-29T06:13:35.379Z,87.46
2018-05-29T06:14:35.198Z,86.92
2018-05-29T06:15:35.144Z,86.92
2018-05-29T06:16:35.027Z,86.82
2018-05-29T06:17:34.940Z,86.44
2018-05-29T06:18:34.863Z,86.15
2018-05-29T06:19:34.770Z,87.30
2018-05-29T06:20:34.809Z,87.54
2018-05-29T06:21:34.594Z,86.05
2018-05-29T06:22:34.514Z,85.23
2018-05-29T06:23:34.426Z,85.03
2018-05-29T06:24:34.336Z,85.71
2018-05-29T06:25:34.285Z,86.00
2018-05-29T06:26:34.166Z,86.68
2018-05-29T06:27:34.170Z,85.28
2018-05-29T06:28:33.994Z,85.42
2018-05-29T06:29:33.908Z,85.52
2018-05-29T06:30:33.860Z,85.03
2018-05-29T06:31:33.736Z,84.46
2018-05-29T06:32:33.649Z,84.27
2018-05-29T06:33:33.563Z,85.42
2018-05-29T06:34:33.573Z,83.15
2018-05-29T06:35:33.424Z,82.96
2018-05-29T06:36:33.304Z,82.76
2018-05-29T06:37:33.221Z,81.60
2018-05-29T06:38:33.136Z,81.02
2018-05-29T06:39:33.049Z,81.07
2018-05-29T06:40:33.010Z,80.58
2018-05-29T06:41:32.879Z,80.68
2018-05-29T06:42:32.791Z,80.49
2018-05-29T06:43:32.706Z,78.94
2018-05-29T06:44:32.622Z,79.56
2018-05-29T06:45:32.538Z,79.56
2018-05-29T06:46:32.483Z,78.92
2018-05-29T06:47:32.370Z,78.21
2018-05-29T06:48:32.283Z,80.91
2018-05-29T06:49:32.200Z,78.02
2018-05-29T06:50:32.118Z,79.70
2018-05-29T06:51:32.064Z,77.09
2018-05-29T06:52:32.001Z,78.11
2018-05-29T06:53:31.867Z,78.79
2018-05-29T06:54:31.783Z,79.80
2018-05-29T06:55:31.699Z,78.44
2018-05-29T06:56:31.643Z,78.06
2018-05-29T06:57:31.530Z,77.96
2018-05-29T06:58:31.448Z,77.76
2018-05-29T06:59:31.366Z,78.54
2018-05-29T07:00:31.280Z,77.96
2018-05-29T07:01:31.227Z,78.50
2018-05-29T07:02:31.124Z,77.96
2018-05-29T07:03:31.031Z,77.96
2018-05-29T07:04:30.951Z,77.61
2018-05-29T07:05:30.868Z,77.19
2018-05-29T07:06:30.816Z,77.67
2018-05-29T07:07:30.704Z,76.51
2018-05-29T07:08:30.619Z,76.64
2018-05-29T07:09:30.538Z,76.55
2018-05-29T07:10:30.456Z,76.97
2018-05-29T07:11:30.405Z,77.84
2018-05-29T07:12:30.293Z,78.75
2018-05-29T07:13:30.208Z,75.81
2018-05-29T07:14:30.158Z,74.32
2018-05-29T07:15:30.046Z,75.87
2018-05-29T07:16:29.995Z,78.09
2018-05-29T07:17:29.885Z,78.09
2018-05-29T07:18:29.809Z,78.06
2018-05-29T07:19:29.725Z,77.57
2018-05-29T07:20:29.641Z,78.44
2018-05-29T07:21:29.587Z,76.61
2018-05-29T07:22:29.477Z,76.55
2018-05-29T07:23:29.404Z,75.48
2018-05-29T07:24:29.314Z,76.74
2018-05-29T07:25:29.230Z,77.96
2018-05-29T07:26:29.185Z,77.28
2018-05-29T07:27:29.069Z,78.06
2018-05-29T07:28:28.992Z,78.44
2018-05-29T07:29:28.905Z,77.86
2018-05-29T07:30:28.825Z,79.06
2018-05-29T07:31:28.775Z,78.29
2018-05-29T07:32:28.660Z,77.90
2018-05-29T07:33:28.580Z,76.35
2018-05-29T07:34:28.499Z,75.43
2018-05-29T07:35:28.421Z,75.71
2018-05-29T07:36:28.366Z,74.49
2018-05-29T07:37:28.279Z,75.56
2018-05-29T07:38:28.175Z,74.01
2018-05-29T07:39:28.098Z,74.59
2018-05-29T07:40:28.012Z,75.13
2018-05-29T07:41:27.962Z,74.85
2018-05-29T07:42:27.848Z,74.85
2018-05-29T07:43:27.767Z,75.23
2018-05-29T07:44:27.691Z,75.62
2018-05-29T07:45:27.607Z,74.65
2018-05-29T07:46:27.555Z,75.43
2018-05-29T07:47:27.443Z,75.62
2018-05-29T07:48:27.359Z,75.56
2018-05-29T07:49:27.283Z,74.30
2018-05-29T07:50:27.201Z,74.59
2018-05-29T07:51:27.124Z,75.60
2018-05-29T07:52:27.070Z,74.53
2018-05-29T07:53:26.960Z,72.98
2018-05-29T07:54:26.877Z,73.79
2018-05-29T07:55:26.798Z,71.92
2018-05-29T07:56:26.717Z,72.73
2018-05-29T07:57:26.757Z,73.11
2018-05-29T07:58:26.558Z,70.44
2018-05-29T07:59:26.480Z,73.50
2018-05-29T08:00:26.403Z,71.22
2018-05-29T08:01:26.314Z,71.22
2018-05-29T08:02:26.262Z,70.86
2018-05-29T08:03:26.151Z,69.76
2018-05-29T08:04:26.161Z,68.99
2018-05-29T08:05:25.990Z,70.73
2018-05-29T08:06:25.916Z,70.40
2018-05-29T08:07:25.861Z,71.28
2018-05-29T08:08:25.750Z,71.28
2018-05-29T08:09:25.670Z,71.18
2018-05-29T08:10:25.590Z,71.95
2018-05-29T08:11:25.605Z,72.11
2018-05-29T08:12:25.476Z,72.15
2018-05-29T08:13:25.350Z,72.34
2018-05-29T08:14:25.270Z,71.28
2018-05-29T08:15:25.190Z,72.24
2018-05-29T08:16:25.110Z,72.09
2018-05-29T08:17:25.058Z,73.41
2018-05-29T08:18:25.044Z,71.37
2018-05-29T08:19:24.869Z,70.40
2018-05-29T08:20:24.790Z,70.73
2018-05-29T08:21:24.708Z,70.79
2018-05-29T08:22:24.662Z,70.73
2018-05-29T08:23:24.563Z,69.79
2018-05-29T08:24:24.469Z,69.31
2018-05-29T08:25:24.485Z,69.31
2018-05-29T08:26:24.311Z,69.79
2018-05-29T08:27:24.260Z,69.02
2018-05-29T08:28:24.150Z,69.43
2018-05-29T08:29:24.068Z,69.76
2018-05-29T08:30:23.991Z,69.08
2018-05-29T08:31:23.909Z,70.60
2018-05-29T08:32:23.951Z,70.25
2018-05-29T08:33:23.749Z,69.67
2018-05-29T08:34:23.671Z,68.99
2018-05-29T08:35:23.590Z,68.50
2018-05-29T08:36:23.508Z,69.89
2018-05-29T08:37:23.465Z,69.02
2018-05-29T08:38:23.348Z,69.47
2018-05-29T08:39:23.324Z,69.63
2018-05-29T08:40:23.190Z,70.34
2018-05-29T08:41:23.117Z,70.92
2018-05-29T08:42:23.062Z,69.76
2018-05-29T08:43:22.952Z,71.44
2018-05-29T08:44:22.871Z,70.03
2018-05-29T08:45:22.789Z,67.21
2018-05-29T08:46:22.715Z,68.21
2018-05-29T08:47:22.663Z,69.12
2018-05-29T08:48:22.549Z,68.96
2018-05-29T08:49:22.474Z,70.18
2018-05-29T08:50:22.392Z,69.12
2018-05-29T08:51:22.315Z,70.96
2018-05-29T08:52:22.236Z,70.76
2018-05-29T08:53:22.189Z,71.58
2018-05-29T08:54:22.069Z,70.15
2018-05-29T08:55:21.996Z,70.93
2018-05-29T08:56:21.913Z,66.27
2018-05-29T08:57:21.841Z,66.79
2018-05-29T08:58:21.786Z,67.80
2018-05-29T08:59:21.676Z,67.63
2018-05-29T09:00:21.595Z,64.69
2018-05-29T09:01:21.518Z,65.56
2018-05-29T09:02:21.437Z,66.72
2018-05-29T09:03:21.398Z,66.76
2018-05-29T09:04:21.328Z,67.21
2018-05-29T09:05:21.201Z,65.33
2018-05-29T09:06:21.125Z,67.37
2018-05-29T09:07:21.044Z,67.41
2018-05-29T09:08:20.992Z,67.14
2018-05-29T09:09:20.882Z,65.30
2018-05-29T09:10:20.806Z,64.56
2018-05-29T09:11:20.726Z,66.08
2018-05-29T09:12:20.649Z,67.57
2018-05-29T09:13:20.598Z,68.93
2018-05-29T09:14:20.493Z,67.80
2018-05-29T09:15:20.415Z,66.24
2018-05-29T09:16:20.332Z,65.40
2018-05-29T09:17:20.254Z,64.53
2018-05-29T09:18:20.204Z,64.62
2018-05-29T09:19:20.103Z,66.44
2018-05-29T09:20:20.026Z,66.63
2018-05-29T09:21:19.939Z,66.69
2018-05-29T09:22:19.863Z,65.92
2018-05-29T09:23:19.812Z,65.89
2018-05-29T09:24:19.707Z,65.40
2018-05-29T09:25:19.624Z,65.33
2018-05-29T09:26:19.545Z,63.62
2018-05-29T09:27:19.469Z,64.26
2018-05-29T09:28:19.423Z,62.74
2018-05-29T09:29:19.313Z,61.77
2018-05-29T09:30:19.234Z,62.77
2018-05-29T09:31:19.155Z,61.35
2018-05-29T09:32:19.089Z,61.67
2018-05-29T09:33:19.028Z,62.32
2018-05-29T09:34:18.919Z,65.50
2018-05-29T09:35:18.840Z,67.05
2018-05-29T09:36:18.760Z,62.51
2018-05-29T09:37:18.687Z,61.15
2018-05-29T09:38:18.636Z,61.80
2018-05-29T09:39:18.528Z,61.60
2018-05-29T09:40:18.466Z,59.92
2018-05-29T09:41:18.372Z,61.54
2018-05-29T09:42:18.292Z,61.47
2018-05-29T09:43:18.248Z,60.41
2018-05-29T09:44:18.140Z,62.64
2018-05-29T09:45:18.059Z,63.20
2018-05-29T09:46:17.981Z,64.36
2018-05-29T09:47:17.902Z,62.54
2018-05-29T09:48:17.877Z,63.29
2018-05-29T09:49:17.744Z,62.68
2018-05-29T09:50:17.699Z,61.12
2018-05-29T09:51:17.591Z,61.02
2018-05-29T09:52:17.514Z,62.19
2018-05-29T09:53:17.439Z,63.10
2018-05-29T09:54:17.391Z,62.29
2018-05-29T09:55:17.281Z,62.77
2018-05-29T09:56:17.201Z,62.61
2018-05-29T09:57:17.125Z,60.57
2018-05-29T09:58:17.051Z,59.72
2018-05-29T09:59:17.002Z,60.69
2018-05-29T10:00:16.890Z,59.23
2018-05-29T10:01:16.814Z,59.17
2018-05-29T10:02:16.734Z,59.56
2018-05-29T10:03:16.660Z,59.56
2018-05-29T10:04:16.613Z,62.19
2018-05-29T10:05:16.504Z,59.72
2018-05-29T10:06:16.426Z,60.60
2018-05-29T10:07:16.380Z,61.38
2018-05-29T10:08:16.268Z,62.61
2018-05-29T10:09:16.224Z,61.44
2018-05-29T10:10:16.110Z,62.32
2018-05-29T10:11:16.056Z,63.17
2018-05-29T10:12:15.956Z,62.23
2018-05-29T10:13:15.930Z,62.87
2018-05-29T10:14:15.831Z,64.53
2018-05-29T10:15:15.723Z,65.79
2018-05-29T10:16:15.647Z,62.51
2018-05-29T10:17:15.569Z,62.74
2018-05-29T10:18:15.491Z,60.41
2018-05-29T10:19:15.475Z,61.96
2018-05-29T10:20:15.335Z,61.47
2018-05-29T10:21:15.255Z,62.29
2018-05-29T10:22:15.193Z,60.46
2018-05-29T10:23:15.099Z,58.78
2018-05-29T10:24:15.054Z,58.10
2018-05-29T10:25:14.947Z,59.53
2018-05-29T10:26:14.867Z,60.28
2018-05-29T10:27:14.790Z,62.74
2018-05-29T10:28:14.712Z,60.77
2018-05-29T10:29:14.662Z,61.35
2018-05-29T10:30:14.558Z,61.61
2018-05-29T10:31:14.480Z,63.87
2018-05-29T10:32:14.401Z,62.06
2018-05-29T10:33:14.321Z,62.35
2018-05-29T10:34:14.318Z,61.51
2018-05-29T10:35:14.181Z,60.79
2018-05-29T10:36:14.088Z,62.32
2018-05-29T10:37:14.011Z,60.96
2018-05-29T10:38:13.933Z,61.18
2018-05-29T10:39:13.887Z,60.24
2018-05-29T10:40:13.781Z,60.11
2018-05-29T10:41:13.700Z,60.05
2018-05-29T10:42:13.625Z,62.45
2018-05-29T10:43:13.545Z,62.77
2018-05-29T10:44:13.495Z,61.11
2018-05-29T10:45:13.479Z,59.10
2018-05-29T10:46:13.311Z,59.39
2018-05-29T10:47:13.242Z,57.93
2018-05-29T10:48:13.155Z,58.00
2018-05-29T10:49:13.113Z,60.02
2018-05-29T10:50:13.001Z,59.72
2018-05-29T10:51:12.927Z,63.59
2018-05-29T10:52:12.940Z,61.64
2018-05-29T10:53:12.769Z,61.57
2018-05-29T10:54:12.720Z,63.32
2018-05-29T10:55:12.611Z,62.57
2018-05-29T10:56:12.534Z,57.81
2018-05-29T10:57:12.460Z,56.64
2018-05-29T10:58:12.382Z,57.22
2018-05-29T10:59:12.448Z,56.27
2018-05-29T11:00:12.254Z,58.54
2018-05-29T11:01:12.147Z,56.23
2018-05-29T11:02:12.065Z,56.23
2018-05-29T11:03:11.991Z,57.54
2018-05-29T11:04:11.915Z,58.36
2018-05-29T11:05:11.868Z,60.44
2018-05-29T11:06:11.848Z,58.78
2018-05-29T11:07:11.683Z,62.67
2018-05-29T11:08:11.599Z,60.66
2018-05-29T11:09:11.524Z,62.63
2018-05-29T11:10:11.479Z,55.94
2018-05-29T11:11:11.368Z,55.62
2018-05-29T11:12:11.290Z,55.60
2018-05-29T11:13:11.308Z,57.81
2018-05-29T11:14:11.140Z,57.84
2018-05-29T11:15:11.092Z,56.86
2018-05-29T11:16:10.983Z,56.72
2018-05-29T11:17:10.905Z,56.23
2018-05-29T11:18:10.830Z,57.70
2018-05-29T11:19:10.750Z,58.46
2018-05-29T11:20:10.848Z,59.07
2018-05-29T11:21:10.596Z,57.84
2018-05-29T11:22:10.517Z,57.25
2018-05-29T11:23:10.440Z,55.43
2018-05-29T11:24:10.364Z,55.36
2018-05-29T11:25:10.325Z,63.06
2018-05-29T11:26:10.205Z,60.91
2018-05-29T11:27:10.226Z,59.03
2018-05-29T11:28:10.054Z,61.24
2018-05-29T11:29:09.974Z,60.17
2018-05-29T11:30:09.934Z,60.66
2018-05-29T11:31:09.880Z,64.04
2018-05-29T11:32:09.747Z,62.19
2018-05-29T11:33:09.667Z,62.80
2018-05-29T11:34:09.700Z,62.32
2018-05-29T11:35:09.550Z,62.80
2018-05-29T11:36:09.436Z,62.54
2018-05-29T11:37:09.375Z,65.40
2018-05-29T11:38:09.281Z,61.54
2018-05-29T11:39:09.206Z,61.38
2018-05-29T11:40:09.155Z,62.74
2018-05-29T11:41:09.146Z,62.35
2018-05-29T11:42:08.972Z,62.09
2018-05-29T11:43:08.897Z,62.64
2018-05-29T11:44:08.817Z,63.55
2018-05-29T11:45:08.777Z,62.84
2018-05-29T11:46:08.671Z,64.49
2018-05-29T11:47:08.586Z,63.42
2018-05-29T11:48:08.601Z,63.39
2018-05-29T11:49:08.488Z,67.47
2018-05-29T11:50:08.379Z,65.50
2018-05-29T11:51:08.275Z,65.69
2018-05-29T11:52:08.199Z,62.87
2018-05-29T11:53:08.118Z,64.17
2018-05-29T11:54:08.041Z,68.02
2018-05-29T11:55:07.995Z,64.65
2018-05-29T11:56:07.884Z,65.63
2018-05-29T11:57:07.811Z,64.72
2018-05-29T11:58:07.728Z,61.83
2018-05-29T11:59:07.651Z,64.49
2018-05-29T12:00:07.601Z,62.19
2018-05-29T12:01:07.494Z,64.29
2018-05-29T12:02:07.415Z,65.23
2018-05-29T12:03:07.337Z,68.32
2018-05-29T12:04:07.260Z,67.50
2018-05-29T12:05:07.180Z,68.83
2018-05-29T12:06:07.138Z,67.73
2018-05-29T12:07:07.023Z,69.24
2018-05-29T12:08:06.947Z,69.89
2018-05-29T12:09:06.866Z,71.44
2018-05-29T12:10:06.793Z,71.83
2018-05-29T12:11:06.743Z,69.60
2018-05-29T12:12:06.633Z,68.89
2018-05-29T12:13:06.553Z,68.63
2018-05-29T12:14:06.471Z,69.02
2018-05-29T12:15:06.396Z,70.48
2018-05-29T12:16:06.344Z,65.98
2018-05-29T12:17:06.231Z,66.37
2018-05-29T12:18:06.151Z,64.98
2018-05-29T12:19:06.130Z,64.88
2018-05-29T12:20:05.993Z,64.33
2018-05-29T12:21:05.961Z,65.11
2018-05-29T12:22:05.833Z,68.57
2018-05-29T12:23:05.755Z,66.79
2018-05-29T12:24:05.676Z,68.67
2018-05-29T12:25:05.600Z,68.41
2018-05-29T12:26:05.546Z,66.21
2018-05-29T12:27:05.440Z,67.60
2018-05-29T12:28:05.358Z,63.16
2018-05-29T12:29:05.278Z,63.65
2018-05-29T12:30:05.199Z,62.38
2018-05-29T12:31:05.151Z,62.48
2018-05-29T12:32:05.038Z,63.29
2018-05-29T12:33:04.963Z,64.29
2018-05-29T12:34:04.879Z,64.75
2018-05-29T12:35:04.806Z,62.64
2018-05-29T12:36:04.754Z,64.39
2018-05-29T12:37:04.646Z,63.87
2018-05-29T12:38:04.569Z,62.61
2018-05-29T12:39:04.486Z,63.10
2018-05-29T12:40:04.411Z,62.64
2018-05-29T12:41:04.362Z,61.87
2018-05-29T12:42:04.252Z,62.45
2018-05-29T12:43:04.174Z,62.64
2018-05-29T12:44:04.094Z,64.49
2018-05-29T12:45:04.015Z,63.00
2018-05-29T12:46:03.976Z,62.61
2018-05-29T12:47:03.860Z,63.26
2018-05-29T12:48:03.790Z,64.56
2018-05-29T12:49:03.703Z,62.38
2018-05-29T12:50:03.624Z,64.72
2018-05-29T12:51:03.579Z,63.29